This is the latest recevied weather packets stored in our database for station/object BMCB-24. If no packets are shown the sender has not sent any weather packets the latest 10 day(s).
| Time | Temp. | Humidity | Pressure | Rain* | Wind** | Luminosity | Snow |
|---|---|---|---|---|---|---|---|
| 1777712455 | 16.11° C | 69% | 1020.7 hPa | 0 mm | - | 594 W/m² | - |
| 1777708259 | 11.11° C | 87% | 1021.7 hPa | 0.76 mm | - | 198 W/m² | - |
| 1777704057 | 10.56° C | 75% | 1022.4 hPa | 0.25 mm | - | 76 W/m² | - |
| 1777702254 | 9.44° C | 77% | 1022.1 hPa | 0.25 mm | - | 100 W/m² | - |
| 1777701655 | 9.44° C | 76% | 1022.1 hPa | 0.25 mm | - | 70 W/m² | - |
| 1777698653 | 10.56° C | 70% | 1022.6 hPa | 0 mm | - | 26 W/m² | - |
| 1777692653 | 6.67° C | 81% | 1022.8 hPa | 0 mm | - | 0 W/m² | - |
| 1777689653 | 8.33° C | 68% | 1023.1 hPa | 0 mm | - | 0 W/m² | - |
| 1777685456 | 5.56° C | 81% | 1023.3 hPa | 0 mm | - | 0 W/m² | - |
| 1777683056 | 6.11° C | 78% | 1023.4 hPa | 0 mm | - | 0 W/m² | - |
| 1777681857 | 6.67° C | 75% | 1023.4 hPa | 0 mm | - | 0 W/m² | - |
| 1777673462 | 6.11° C | 78% | 1024.5 hPa | 0 mm | - | 0 W/m² | - |
| 1777671665 | 6.11° C | 76% | 1024.5 hPa | 0 mm | - | 0 W/m² | - |
| 1777671067 | 6.67° C | 76% | 1024.4 hPa | 0 mm | - | 0 W/m² | - |
| 1777661467 | 12.78° C | 55% | 1023 hPa | 0 mm | - | 6 W/m² | - |
| 1777658469 | 20° C | 30% | 1021.9 hPa | 0 mm | - | 74 W/m² | - |
| 1777657869 | 20° C | 29% | 1021.8 hPa | 0 mm | - | 96 W/m² | - |
| 1777647055 | 21.11° C | 25% | 1022.6 hPa | 0 mm | - | 564 W/m² | - |
| 1777644655 | 21.11° C | 26% | 1022.9 hPa | 0 mm | - | 646 W/m² | - |
| 1777642856 | 20° C | 26% | 1023.4 hPa | 0 mm | - | 694 W/m² | - |
| 1777639257 | 19.44° C | 28% | 1023.9 hPa | 0 mm | - | 752 W/m² | - |
| 1777622455 | 12.78° C | 35% | 1025.8 hPa | 0 mm | - | 480 W/m² | - |
| 1777613452 | 7.22° C | 47% | 1026.2 hPa | 0 mm | - | 88 W/m² | - |
| 1777604451 | 3.89° C | 55% | 1026.7 hPa | 0 mm | - | 0 W/m² | - |
| 1777602054 | 7.22° C | 42% | 1026 hPa | 0 mm | - | 0 W/m² | - |
* Rain latest hour (hover to see other rain measurements)
** Current wind speed in m/s (hover to see current wind gust speed)